Urumqi, China
Current Conditions -  °F | °C
As of 5:00 AM on Sunday 23 Nov 2014 (Local Time) from ZWWW Reporting Station
Clear Clear  
Wind Chill: 21°   Ceiling: Unl
Heat Index: 28°   Visibility: 5mi
Dew Point: 19°   Wind: 7mph
Humidity: 69%   Direction: 180°S
Pressure: 30.27"   Gusts: NA
Location:  43.8°N, 87.58°E
Report Text: ZWWW 222100Z 18003MPS 8000 NSC M02/M07 Q1025 NOSIG
Loading
Personal Weather Stations






























Interactive Weather Map New forecast layout! Learn more

10-Day Weather Forecast

Advertisements
Track Severe Weather on mobile